createdAt,value
2023-01-11T00:00:28.849Z,98334.19
2023-01-11T00:02:32.467Z,98328.03
2023-01-11T00:04:36.817Z,98321.94
2023-01-11T00:06:39.924Z,98320.94
2023-01-11T00:08:42.861Z,98313.38
2023-01-11T00:10:45.921Z,98311.59
2023-01-11T00:12:49.203Z,98310.72
2023-01-11T00:14:52.220Z,98302.94
2023-01-11T00:16:55.146Z,98298.53
2023-01-11T00:18:58.199Z,98302.94
2023-01-11T00:21:05.608Z,98297.59
2023-01-11T00:23:09.381Z,98296.56
2023-01-11T00:25:12.427Z,98295.66
2023-01-11T00:27:15.389Z,98299.00
2023-01-11T00:29:18.548Z,98299.75
2023-01-11T00:31:21.830Z,98306.59
2023-01-11T00:33:24.922Z,98305.59
2023-01-11T00:35:28.924Z,98298.44
2023-01-11T00:37:33.411Z,98301.03
2023-01-11T00:39:36.463Z,98300.97
2023-01-11T00:41:57.145Z,98290.50
2023-01-11T00:44:17.851Z,98286.06
2023-01-11T00:46:38.707Z,98280.06
2023-01-11T00:48:41.758Z,98268.00
2023-01-11T00:50:47.738Z,98272.19
2023-01-11T00:52:52.168Z,98257.47
2023-01-11T00:54:55.359Z,98257.31
2023-01-11T00:56:58.399Z,98258.06
2023-01-11T00:59:01.575Z,98262.34
2023-01-11T01:01:07.857Z,98264.94
2023-01-11T01:03:11.429Z,98259.75
2023-01-11T01:05:14.900Z,98262.16
2023-01-11T01:07:17.939Z,98256.81
2023-01-11T01:09:22.236Z,98259.09
2023-01-11T01:11:25.613Z,98253.16
2023-01-11T01:13:45.885Z,98244.44
2023-01-11T01:15:48.968Z,98252.38
2023-01-11T01:17:54.059Z,98247.13
2023-01-11T01:19:57.100Z,98251.16
2023-01-11T01:22:01.025Z,98248.47
2023-01-11T01:24:04.134Z,98245.63
2023-01-11T01:26:08.649Z,98238.59
2023-01-11T01:28:11.661Z,98234.94
2023-01-11T01:30:15.448Z,98237.44
2023-01-11T01:32:18.428Z,98236.41
2023-01-11T01:34:21.418Z,98230.25
2023-01-11T01:36:24.553Z,98229.41
2023-01-11T01:38:27.530Z,98237.19
2023-01-11T01:40:30.593Z,98242.31
2023-01-11T01:42:35.010Z,98242.97
2023-01-11T01:45:01.202Z,98229.09
2023-01-11T01:47:04.453Z,98231.50
2023-01-11T01:49:10.779Z,98237.38
2023-01-11T01:51:15.807Z,98230.31
2023-01-11T01:53:22.341Z,98221.53
2023-01-11T01:55:29.136Z,98229.25
2023-01-11T01:57:35.505Z,98217.88
2023-01-11T01:59:38.647Z,98214.25
2023-01-11T02:01:48.311Z,98206.47
2023-01-11T02:03:52.375Z,98208.97
2023-01-11T02:05:55.581Z,98208.78
2023-01-11T02:07:59.327Z,98201.75
2023-01-11T02:10:08.045Z,98201.50
2023-01-11T02:12:11.060Z,98197.06
2023-01-11T02:14:17.856Z,98194.41
2023-01-11T02:16:20.926Z,98197.72
2023-01-11T02:18:23.963Z,98181.06
2023-01-11T02:20:47.858Z,98183.75
2023-01-11T02:23:08.124Z,98177.44
2023-01-11T02:25:34.920Z,98179.22
2023-01-11T02:28:03.759Z,98182.53
2023-01-11T02:30:17.807Z,98170.50
2023-01-11T02:32:27.466Z,98172.34
2023-01-11T02:34:38.796Z,98166.41
2023-01-11T02:36:52.024Z,98162.88
2023-01-11T02:38:59.118Z,98162.72
2023-01-11T02:41:07.061Z,98159.94
2023-01-11T02:43:33.271Z,98156.00
2023-01-11T02:45:41.356Z,98160.13
2023-01-11T02:47:48.717Z,98162.53
2023-01-11T02:49:57.799Z,98157.16
2023-01-11T02:52:09.288Z,98164.88
2023-01-11T02:54:13.772Z,98157.81
2023-01-11T02:56:19.850Z,98150.81
2023-01-11T02:58:26.548Z,98149.38
2023-01-11T03:00:29.688Z,98162.28
2023-01-11T03:02:32.804Z,98144.78
2023-01-11T03:04:37.434Z,98153.22
2023-01-11T03:06:40.445Z,98160.66
2023-01-11T03:09:08.302Z,98159.66
2023-01-11T03:11:14.383Z,98155.38
2023-01-11T03:13:26.070Z,98153.59
2023-01-11T03:15:55.608Z,98145.72
2023-01-11T03:18:06.385Z,98146.50
2023-01-11T03:20:13.650Z,98146.50
2023-01-11T03:22:25.216Z,98150.84
2023-01-11T03:24:33.254Z,98154.09
2023-01-11T03:26:42.378Z,98147.78
2023-01-11T03:28:52.574Z,98150.22
2023-01-11T03:31:01.112Z,98143.00
2023-01-11T03:33:07.743Z,98139.28
2023-01-11T03:35:19.351Z,98148.56
2023-01-11T03:37:25.970Z,98146.63
2023-01-11T03:39:31.475Z,98142.28
2023-01-11T03:41:37.255Z,98147.94
2023-01-11T03:43:43.934Z,98140.69
2023-01-11T03:45:52.217Z,98150.06
2023-01-11T03:47:56.244Z,98147.28
2023-01-11T03:50:02.335Z,98152.97
2023-01-11T03:52:07.162Z,98143.28
2023-01-11T03:54:12.533Z,98152.03
2023-01-11T03:56:17.996Z,98145.88
2023-01-11T03:58:21.001Z,98141.38
2023-01-11T04:00:24.579Z,98145.44
2023-01-11T04:02:30.893Z,98132.06
2023-01-11T04:04:34.060Z,98136.16
2023-01-11T04:06:38.520Z,98128.88
2023-01-11T04:08:41.669Z,98136.50
2023-01-11T04:10:47.604Z,98129.44
2023-01-11T04:12:50.940Z,98126.75
2023-01-11T04:14:53.990Z,98120.44
2023-01-11T04:16:57.843Z,98119.31
2023-01-11T04:19:02.961Z,98113.06
2023-01-11T04:21:06.558Z,98107.84
2023-01-11T04:23:10.589Z,98109.53
2023-01-11T04:25:13.657Z,98106.66
2023-01-11T04:27:16.774Z,98096.88
2023-01-11T04:29:19.935Z,98104.50
2023-01-11T04:31:23.025Z,98090.38
2023-01-11T04:33:26.007Z,98093.59
2023-01-11T04:35:30.331Z,98092.47
2023-01-11T04:37:33.333Z,98086.13
2023-01-11T04:39:36.363Z,98086.78
2023-01-11T04:41:57.050Z,98089.19
2023-01-11T04:44:00.068Z,98089.81
2023-01-11T04:46:03.138Z,98092.13
2023-01-11T04:48:06.719Z,98090.16
2023-01-11T04:50:11.817Z,98087.47
2023-01-11T04:52:18.040Z,98081.31
2023-01-11T04:54:21.317Z,98084.56
2023-01-11T04:56:24.288Z,98085.31
2023-01-11T04:58:27.280Z,98081.31
2023-01-11T05:00:30.263Z,98078.09
2023-01-11T05:02:33.272Z,98076.50
2023-01-11T05:04:36.424Z,98074.84
2023-01-11T05:06:39.357Z,98062.78
2023-01-11T05:08:47.660Z,98064.09
2023-01-11T05:10:53.408Z,98075.53
2023-01-11T05:12:56.352Z,98063.56
2023-01-11T05:14:59.398Z,98055.94
2023-01-11T05:17:02.413Z,98071.56
2023-01-11T05:19:06.297Z,98064.69
2023-01-11T05:21:09.583Z,98064.69
2023-01-11T05:23:12.646Z,98062.06
2023-01-11T05:25:17.223Z,98057.69
2023-01-11T05:27:20.345Z,98062.19
2023-01-11T05:29:23.404Z,98058.66
2023-01-11T05:31:26.999Z,98063.75
2023-01-11T05:33:30.178Z,98050.66
2023-01-11T05:35:33.191Z,98051.38
2023-01-11T05:37:36.262Z,98060.84
2023-01-11T05:39:39.421Z,98061.69
2023-01-11T05:41:43.900Z,98050.44
2023-01-11T05:44:05.688Z,98052.28
2023-01-11T05:46:08.863Z,98056.47
2023-01-11T05:48:11.917Z,98060.00
2023-01-11T05:50:15.066Z,98055.75
2023-01-11T05:52:18.030Z,98059.91
2023-01-11T05:54:21.267Z,98058.97
2023-01-11T05:56:24.402Z,98061.50
2023-01-11T05:58:28.876Z,98052.75
2023-01-11T06:00:31.906Z,98048.47
2023-01-11T06:02:35.797Z,98048.38
2023-01-11T06:04:38.869Z,98052.75
2023-01-11T06:06:41.995Z,98050.06
2023-01-11T06:08:45.040Z,98052.66
2023-01-11T06:10:52.087Z,98049.00
2023-01-11T06:13:15.985Z,98045.66
2023-01-11T06:15:20.445Z,98036.84
2023-01-11T06:17:23.479Z,98040.25
2023-01-11T06:19:26.504Z,98038.28
2023-01-11T06:21:29.493Z,98026.22
2023-01-11T06:23:34.406Z,98038.38
2023-01-11T06:25:38.252Z,98023.81
2023-01-11T06:27:41.305Z,98031.53
2023-01-11T06:29:44.379Z,98026.22
2023-01-11T06:31:49.468Z,98028.81
2023-01-11T06:33:52.509Z,98027.97
2023-01-11T06:35:55.982Z,98018.31
2023-01-11T06:37:58.944Z,98017.25
2023-01-11T06:40:01.904Z,98012.06
2023-01-11T06:42:05.176Z,98007.50
2023-01-11T06:44:08.434Z,98010.94
2023-01-11T06:46:12.766Z,98017.81
2023-01-11T06:48:17.117Z,98009.25
2023-01-11T06:50:20.275Z,98012.72
2023-01-11T06:52:23.306Z,98018.84
2023-01-11T06:54:26.291Z,98022.16
2023-01-11T06:56:29.298Z,98019.47
2023-01-11T06:58:32.317Z,98013.22
2023-01-11T07:00:35.329Z,98018.34
2023-01-11T07:02:38.583Z,98019.88
2023-01-11T07:04:43.083Z,98018.84
2023-01-11T07:06:46.234Z,98020.44
2023-01-11T07:08:49.312Z,98021.97
2023-01-11T07:10:52.465Z,98024.47
2023-01-11T07:12:55.602Z,98034.69
2023-01-11T07:14:58.626Z,98027.84
2023-01-11T07:17:01.643Z,98021.06
2023-01-11T07:19:04.810Z,98022.47
2023-01-11T07:21:09.228Z,98009.44
2023-01-11T07:23:12.337Z,98016.84
2023-01-11T07:25:15.487Z,98012.75
2023-01-11T07:27:19.734Z,98007.94
2023-01-11T07:29:23.054Z,98008.53
2023-01-11T07:31:26.177Z,97994.28
2023-01-11T07:33:29.232Z,98000.59
2023-01-11T07:35:32.200Z,97998.19
2023-01-11T07:37:38.490Z,97994.16
2023-01-11T07:39:43.952Z,98000.38
2023-01-11T07:42:04.848Z,97996.19
2023-01-11T07:44:07.835Z,97994.63
2023-01-11T07:46:10.902Z,98001.06
2023-01-11T07:48:14.602Z,97994.94
2023-01-11T07:50:17.724Z,97992.03
2023-01-11T07:52:20.985Z,98000.47
2023-01-11T07:54:25.709Z,98011.22
2023-01-11T07:56:28.673Z,98005.59
2023-01-11T07:58:32.586Z,97998.38
2023-01-11T08:00:35.612Z,98004.19
2023-01-11T08:02:38.686Z,98009.09
2023-01-11T08:04:41.769Z,98005.25
2023-01-11T08:06:44.802Z,98005.50
2023-01-11T08:08:47.818Z,98006.84
2023-01-11T08:11:12.309Z,98005.72
2023-01-11T08:13:33.136Z,98006.84
2023-01-11T08:15:37.032Z,98002.19
2023-01-11T08:17:40.088Z,98006.16
2023-01-11T08:19:43.444Z,98008.44
2023-01-11T08:21:46.610Z,98010.56
2023-01-11T08:23:49.634Z,98011.94
2023-01-11T08:25:58.826Z,98021.84
2023-01-11T08:28:02.726Z,98024.97
2023-01-11T08:30:06.858Z,98025.28
2023-01-11T08:32:10.028Z,98023.09
2023-01-11T08:34:13.239Z,98028.72
2023-01-11T08:36:16.394Z,98029.13
2023-01-11T08:38:19.473Z,98028.00
2023-01-11T08:40:24.212Z,98024.25
2023-01-11T08:42:29.244Z,98035.19
2023-01-11T08:44:34.519Z,98031.19
2023-01-11T08:46:38.167Z,98031.72
2023-01-11T08:48:41.200Z,98023.69
2023-01-11T08:50:44.954Z,98020.53
2023-01-11T08:52:47.999Z,98021.16
2023-01-11T08:54:51.084Z,98022.72
2023-01-11T08:56:54.219Z,98015.41
2023-01-11T08:58:58.653Z,98028.00
2023-01-11T09:01:03.778Z,98026.81
2023-01-11T09:03:06.967Z,98030.19
2023-01-11T09:05:11.052Z,98030.06
2023-01-11T09:07:14.165Z,98029.13
2023-01-11T09:09:17.359Z,98032.56
2023-01-11T09:11:38.167Z,98028.19
2023-01-11T09:13:41.297Z,98030.91
2023-01-11T09:15:46.864Z,98024.84
2023-01-11T09:17:50.535Z,98023.06
2023-01-11T09:19:54.613Z,98026.50
2023-01-11T09:22:00.507Z,98023.91
2023-01-11T09:24:04.582Z,98026.50
2023-01-11T09:26:07.693Z,98035.19
2023-01-11T09:28:10.850Z,98030.06
2023-01-11T09:30:17.043Z,98020.69
2023-01-11T09:32:21.437Z,98014.09
2023-01-11T09:34:25.446Z,98021.22
2023-01-11T09:36:29.052Z,98029.16
2023-01-11T09:38:34.023Z,98026.88
2023-01-11T09:40:46.195Z,98027.09
2023-01-11T09:42:52.632Z,98023.16
2023-01-11T09:44:58.189Z,98020.66
2023-01-11T09:47:13.630Z,98015.66
2023-01-11T09:49:20.196Z,98023.03
2023-01-11T09:51:24.774Z,98019.72
2023-01-11T09:53:34.761Z,98023.25
2023-01-11T09:55:40.747Z,98012.81
2023-01-11T09:57:53.736Z,98013.78
2023-01-11T10:00:01.802Z,98012.00
2023-01-11T10:02:17.405Z,98014.63
2023-01-11T10:04:40.827Z,98006.19
2023-01-11T10:06:53.287Z,98009.50
2023-01-11T10:18:27.916Z,98002.59
2023-01-11T10:18:31.010Z,98012.41
2023-01-11T10:21:45.651Z,97998.59
2023-01-11T10:23:53.742Z,97997.69
2023-01-11T10:26:01.794Z,97995.78
2023-01-11T10:28:08.095Z,98000.56
2023-01-11T10:30:33.618Z,97991.59
2023-01-11T10:32:54.035Z,97997.31
2023-01-11T10:35:13.694Z,97995.41
2023-01-11T10:37:36.192Z,97991.88
2023-01-11T10:40:04.104Z,97998.31
2023-01-11T10:42:11.611Z,97993.50
2023-01-11T10:44:19.374Z,97992.44
2023-01-11T10:46:24.458Z,97988.66
2023-01-11T10:48:32.011Z,97987.38
2023-01-11T10:50:40.046Z,97996.78
2023-01-11T10:52:48.149Z,97986.34
2023-01-11T10:54:55.904Z,97991.41
2023-01-11T10:57:08.963Z,97986.94
2023-01-11T10:59:23.686Z,97985.47
2023-01-11T11:01:34.928Z,97985.59
2023-01-11T11:03:50.370Z,97983.22
2023-01-11T11:05:56.076Z,97980.09
2023-01-11T11:08:06.024Z,97986.91
2023-01-11T11:10:13.595Z,97987.88
2023-01-11T11:12:20.630Z,97967.44
2023-01-11T11:14:30.208Z,97975.50
2023-01-11T11:16:45.454Z,97975.59
2023-01-11T11:18:49.741Z,97975.50
2023-01-11T11:20:52.988Z,97973.59
2023-01-11T11:22:56.803Z,97977.66
2023-01-11T11:25:03.549Z,97976.81
2023-01-11T11:27:12.972Z,97967.13
2023-01-11T11:29:22.375Z,97968.53
2023-01-11T11:31:25.506Z,97962.38
2023-01-11T11:33:32.367Z,97965.00
2023-01-11T11:35:38.268Z,97958.00
2023-01-11T11:37:43.570Z,97960.59
2023-01-11T11:39:50.111Z,97963.84
2023-01-11T11:41:56.222Z,97961.72
2023-01-11T11:44:10.189Z,97961.38
2023-01-11T11:46:24.605Z,97957.72
2023-01-11T11:48:29.696Z,97953.66
2023-01-11T11:50:48.618Z,97957.31
2023-01-11T11:52:53.949Z,97950.34
2023-01-11T11:54:59.203Z,97948.78
2023-01-11T11:57:14.636Z,97937.63
2023-01-11T11:59:19.812Z,97939.50
2023-01-11T12:01:26.082Z,97941.28
2023-01-11T12:03:32.202Z,97943.78
2023-01-11T12:05:35.180Z,97949.81
2023-01-11T12:07:53.550Z,97937.84
2023-01-11T12:10:01.038Z,97943.06
2023-01-11T12:12:06.711Z,97938.78
2023-01-11T12:14:17.998Z,97936.41
2023-01-11T12:16:22.847Z,97931.91
2023-01-11T12:18:27.850Z,97935.47
2023-01-11T12:20:33.771Z,97931.91
2023-01-11T12:22:36.883Z,97938.06
2023-01-11T12:24:39.890Z,97936.06
2023-01-11T12:26:51.609Z,97942.97
2023-01-11T12:29:21.662Z,97936.06
2023-01-11T12:31:32.623Z,97929.28
2023-01-11T12:33:45.526Z,97930.84
2023-01-11T12:35:54.346Z,97942.97
2023-01-11T12:38:07.653Z,97935.72
2023-01-11T12:40:15.226Z,97936.22
2023-01-11T12:42:34.597Z,97934.56
2023-01-11T12:44:52.095Z,97934.56
2023-01-11T12:47:06.999Z,97932.06
2023-01-11T12:49:27.864Z,97935.63
2023-01-11T12:51:40.673Z,97934.69
2023-01-11T12:53:52.929Z,97941.31
2023-01-11T12:56:16.909Z,97939.94
2023-01-11T12:58:23.823Z,97947.44
2023-01-11T13:00:37.850Z,97943.84
2023-01-11T13:03:05.797Z,97940.09
2023-01-11T13:05:24.541Z,97940.31
2023-01-11T13:07:34.708Z,97938.16
2023-01-11T13:09:46.513Z,97937.44
2023-01-11T13:11:54.050Z,97946.69
2023-01-11T13:14:01.353Z,97957.13
2023-01-11T13:16:09.479Z,97960.84
2023-01-11T13:18:20.312Z,97962.47
2023-01-11T13:20:29.993Z,97973.53
2023-01-11T13:22:37.836Z,97966.44
2023-01-11T13:24:41.973Z,97967.13
2023-01-11T13:26:49.140Z,97965.16
2023-01-11T13:28:57.865Z,97970.25
2023-01-11T13:31:05.226Z,97967.66
2023-01-11T13:33:14.720Z,97964.97
2023-01-11T13:35:20.132Z,97959.50
2023-01-11T13:37:29.131Z,97967.47
2023-01-11T13:39:39.889Z,97971.00
2023-01-11T13:41:46.228Z,97970.66
2023-01-11T13:43:55.817Z,97977.22
2023-01-11T13:46:03.670Z,97981.16
2023-01-11T13:48:15.229Z,97979.16
2023-01-11T13:50:22.561Z,97987.81
2023-01-11T13:52:32.817Z,97984.97
2023-01-11T13:54:40.744Z,97994.34
2023-01-11T13:56:45.821Z,98004.56
2023-01-11T13:58:53.374Z,98009.56
2023-01-11T14:00:59.763Z,98007.69
2023-01-11T14:03:13.827Z,98008.63
2023-01-11T14:05:19.118Z,98013.59
2023-01-11T14:07:34.649Z,98022.72
2023-01-11T14:09:53.275Z,98042.78
2023-01-11T14:12:01.992Z,98049.59
2023-01-11T14:14:23.841Z,98045.50
2023-01-11T14:16:34.028Z,98043.00
2023-01-11T14:18:41.008Z,98050.13
2023-01-11T14:20:48.621Z,98057.97
2023-01-11T14:22:59.495Z,98044.91
2023-01-11T14:25:04.806Z,98055.16
2023-01-11T14:27:18.650Z,98055.97
2023-01-11T14:29:51.473Z,98066.53
2023-01-11T14:32:07.620Z,98071.03
2023-01-11T14:34:43.807Z,98077.19
2023-01-11T14:37:00.945Z,98076.47
2023-01-11T14:39:16.565Z,98080.84
2023-01-11T14:41:39.235Z,98080.03
2023-01-11T14:43:56.968Z,98080.25
2023-01-11T14:46:16.567Z,98078.69
2023-01-11T14:48:27.817Z,98084.00
2023-01-11T14:50:41.073Z,98086.94
2023-01-11T14:52:46.256Z,98090.94
2023-01-11T14:54:50.796Z,98089.16
2023-01-11T14:56:55.704Z,98090.19
2023-01-11T14:59:06.652Z,98100.75
2023-01-11T15:01:13.651Z,98095.53
2023-01-11T15:03:40.129Z,98109.44
2023-01-11T15:05:47.650Z,98108.56
2023-01-11T15:07:52.098Z,98116.63
2023-01-11T15:09:55.473Z,98113.09
2023-01-11T15:12:12.455Z,98118.41
2023-01-11T15:14:25.434Z,98119.34
2023-01-11T15:16:47.925Z,98116.72
2023-01-11T15:18:51.081Z,98124.34
2023-01-11T15:20:56.085Z,98127.81
2023-01-11T15:23:02.406Z,98133.03
2023-01-11T15:25:07.649Z,98126.03
2023-01-11T15:27:24.445Z,98135.66
2023-01-11T15:29:29.220Z,98129.69
2023-01-11T15:31:36.295Z,98138.38
2023-01-11T15:33:50.963Z,98132.53
2023-01-11T15:36:03.785Z,98126.56
2023-01-11T15:38:13.020Z,98133.47
2023-01-11T15:40:21.232Z,98144.03
2023-01-11T15:42:48.195Z,98148.63
2023-01-11T15:45:08.185Z,98139.34
2023-01-11T15:47:25.654Z,98148.19
2023-01-11T15:50:06.481Z,98163.75
2023-01-11T15:52:24.624Z,98166.38
2023-01-11T15:54:43.955Z,98172.66
2023-01-11T15:57:14.930Z,98176.91
2023-01-11T16:00:08.101Z,98182.13
2023-01-11T16:02:41.671Z,98174.41
2023-01-11T16:04:47.010Z,98184.84
2023-01-11T16:06:54.066Z,98190.94
2023-01-11T16:09:02.370Z,98197.91
2023-01-11T16:11:16.115Z,98202.41
2023-01-11T16:13:35.798Z,98200.94
2023-01-11T16:15:49.497Z,98199.59
2023-01-11T16:17:52.896Z,98205.84
2023-01-11T16:19:57.014Z,98206.69
2023-01-11T16:22:05.426Z,98209.38
2023-01-11T16:24:10.298Z,98216.41
2023-01-11T16:26:19.126Z,98214.00
2023-01-11T16:28:22.901Z,98220.25
2023-01-11T16:30:26.554Z,98232.56
2023-01-11T16:32:32.860Z,98229.84
2023-01-11T16:34:42.056Z,98248.03
2023-01-11T16:36:48.917Z,98246.34
2023-01-11T16:39:04.578Z,98244.88
2023-01-11T16:41:13.120Z,98255.53
2023-01-11T16:43:20.745Z,98253.22
2023-01-11T16:45:25.448Z,98256.88
2023-01-11T16:47:28.644Z,98263.03
2023-01-11T16:49:31.822Z,98271.91
2023-01-11T16:51:34.904Z,98269.59
2023-01-11T16:53:39.106Z,98274.72
2023-01-11T16:55:43.620Z,98287.84
2023-01-11T16:57:49.405Z,98284.41
2023-01-11T17:00:01.979Z,98286.25
2023-01-11T17:02:27.576Z,98287.53
2023-01-11T17:04:32.003Z,98289.94
2023-01-11T17:06:35.877Z,98291.16
2023-01-11T17:08:40.070Z,98294.69
2023-01-11T17:10:43.456Z,98288.84
2023-01-11T17:12:48.264Z,98302.63
2023-01-11T17:15:12.590Z,98296.78
2023-01-11T17:17:15.788Z,98315.94
2023-01-11T17:19:20.917Z,98318.47
2023-01-11T17:21:26.118Z,98319.50
2023-01-11T17:23:29.170Z,98325.56
2023-01-11T17:25:44.221Z,98326.34
2023-01-11T17:27:50.977Z,98324.69
2023-01-11T17:29:55.481Z,98341.06
2023-01-11T17:32:00.953Z,98341.06
2023-01-11T17:34:08.286Z,98336.78
2023-01-11T17:36:11.535Z,98338.34
2023-01-11T17:38:18.005Z,98343.66
2023-01-11T17:40:23.645Z,98337.72
2023-01-11T17:42:44.451Z,98339.56
2023-01-11T17:45:06.426Z,98346.47
2023-01-11T17:47:13.311Z,98345.53
2023-01-11T17:49:22.362Z,98359.69
2023-01-11T17:51:26.832Z,98366.78
2023-01-11T17:53:32.441Z,98368.25
2023-01-11T17:55:35.829Z,98379.34
2023-01-11T17:57:38.861Z,98371.53
2023-01-11T17:59:41.858Z,98368.25
2023-01-11T18:01:47.356Z,98377.03
2023-01-11T18:03:53.319Z,98381.09
2023-01-11T18:05:56.769Z,98395.81
2023-01-11T18:08:00.643Z,98390.88
2023-01-11T18:10:04.124Z,98398.16
2023-01-11T18:12:10.932Z,98401.06
2023-01-11T18:14:19.579Z,98397.59
2023-01-11T18:16:23.732Z,98403.84
2023-01-11T18:18:42.048Z,98405.78
2023-01-11T18:20:46.667Z,98408.50
2023-01-11T18:22:58.703Z,98413.06
2023-01-11T18:25:04.262Z,98408.78
2023-01-11T18:27:15.606Z,98406.06
2023-01-11T18:29:20.494Z,98399.31
2023-01-11T18:31:23.613Z,98414.09
2023-01-11T18:33:28.381Z,98413.34
2023-01-11T18:35:32.137Z,98414.41
2023-01-11T18:37:36.688Z,98413.63
2023-01-11T18:39:40.105Z,98420.63
2023-01-11T18:42:00.869Z,98419.78
2023-01-11T18:44:04.826Z,98413.91
2023-01-11T18:46:09.700Z,98421.00
2023-01-11T18:48:13.591Z,98424.53
2023-01-11T18:50:19.544Z,98422.97
2023-01-11T18:52:27.454Z,98424.63
2023-01-11T18:54:32.033Z,98423.69
2023-01-11T18:56:35.093Z,98424.53
2023-01-11T18:58:38.192Z,98428.25
2023-01-11T19:00:42.055Z,98428.44
2023-01-11T19:02:45.710Z,98430.44
2023-01-11T19:04:48.943Z,98426.91
2023-01-11T19:06:52.463Z,98429.69
2023-01-11T19:08:55.707Z,98426.00
2023-01-11T19:11:02.981Z,98429.06
2023-01-11T19:13:06.050Z,98424.13
2023-01-11T19:15:09.879Z,98426.34
2023-01-11T19:17:13.727Z,98417.97
2023-01-11T19:19:16.990Z,98412.56
2023-01-11T19:21:20.170Z,98426.59
2023-01-11T19:25:27.274Z,98426.94
2023-01-11T19:27:31.739Z,98426.13
2023-01-11T19:29:34.890Z,98422.00
2023-01-11T19:31:38.044Z,98436.88
2023-01-11T19:33:41.694Z,98437.97
2023-01-11T19:35:47.556Z,98432.97
2023-01-11T19:37:50.912Z,98435.59
2023-01-11T19:39:54.014Z,98439.47
2023-01-11T19:41:59.968Z,98441.66
2023-01-11T19:44:04.478Z,98445.78
2023-01-11T19:46:11.399Z,98448.56
2023-01-11T19:48:14.690Z,98457.97
2023-01-11T19:50:18.022Z,98463.25
2023-01-11T19:52:21.783Z,98466.59
2023-01-11T19:54:26.915Z,98465.00
2023-01-11T19:56:29.988Z,98460.75
2023-01-11T19:58:33.432Z,98462.66
2023-01-11T20:00:37.987Z,98456.88
2023-01-11T20:02:42.343Z,98457.41
2023-01-11T20:04:45.615Z,98462.03
2023-01-11T20:06:52.033Z,98458.00
2023-01-11T20:08:56.262Z,98461.38
2023-01-11T20:11:05.368Z,98462.13
2023-01-11T20:13:08.534Z,98466.31
2023-01-11T20:15:12.770Z,98469.91
2023-01-11T20:17:20.953Z,98472.59
2023-01-11T20:19:24.176Z,98467.47
2023-01-11T20:21:31.632Z,98465.72
2023-01-11T20:23:34.799Z,98465.72
2023-01-11T20:25:39.138Z,98469.09
2023-01-11T20:27:43.481Z,98469.09
2023-01-11T20:29:47.278Z,98466.56
2023-01-11T20:31:50.576Z,98465.72
2023-01-11T20:33:55.573Z,98462.19
2023-01-11T20:35:58.593Z,98468.22
2023-01-11T20:38:01.639Z,98475.19
2023-01-11T20:40:06.570Z,98477.78
2023-01-11T20:42:12.451Z,98476.97
2023-01-11T20:44:17.091Z,98482.00
2023-01-11T20:46:20.311Z,98489.63
2023-01-11T20:48:23.390Z,98487.69
2023-01-11T20:50:28.305Z,98493.63
2023-01-11T20:52:31.323Z,98502.13
2023-01-11T20:54:34.339Z,98499.34
2023-01-11T20:56:38.545Z,98506.88
2023-01-11T20:58:41.673Z,98511.09
2023-01-11T21:00:44.744Z,98511.56
2023-01-11T21:02:49.594Z,98512.59
2023-01-11T21:04:52.864Z,98510.19
2023-01-11T21:06:57.200Z,98512.94
2023-01-11T21:09:01.483Z,98514.84
2023-01-11T21:11:05.814Z,98502.53
2023-01-11T21:13:11.819Z,98503.28
2023-01-11T21:15:14.941Z,98500.69
2023-01-11T21:17:19.352Z,98507.75
2023-01-11T21:19:22.594Z,98498.41
2023-01-11T21:21:26.187Z,98502.72
2023-01-11T21:23:30.886Z,98496.16
2023-01-11T21:25:34.989Z,98488.19
2023-01-11T21:27:39.052Z,98493.81
2023-01-11T21:29:42.122Z,98490.88
2023-01-11T21:31:45.265Z,98494.72
2023-01-11T21:33:48.919Z,98500.16
2023-01-11T21:35:51.945Z,98496.81
2023-01-11T21:37:55.036Z,98502.59
2023-01-11T21:39:59.415Z,98497.81
2023-01-11T21:42:03.573Z,98487.09
2023-01-11T21:44:06.838Z,98486.94
2023-01-11T21:46:10.733Z,98484.50
2023-01-11T21:48:13.785Z,98485.19
2023-01-11T21:50:17.415Z,98481.81
2023-01-11T21:52:20.491Z,98488.88
2023-01-11T21:54:23.623Z,98483.25
2023-01-11T21:56:28.017Z,98492.28
2023-01-11T21:58:31.146Z,98492.44
2023-01-11T22:00:35.635Z,98489.25
2023-01-11T22:02:38.968Z,98488.63
2023-01-11T22:04:42.077Z,98484.72
2023-01-11T22:06:50.834Z,98480.66
2023-01-11T22:08:54.205Z,98485.94
2023-01-11T22:10:58.489Z,98491.66
2023-01-11T22:13:03.311Z,98492.50
2023-01-11T22:15:07.306Z,98495.69
2023-01-11T22:17:10.449Z,98495.53
2023-01-11T22:19:13.863Z,98486.66
2023-01-11T22:21:18.610Z,98489.94
2023-01-11T22:23:21.577Z,98493.50
2023-01-11T22:25:24.567Z,98473.91
2023-01-11T22:27:27.696Z,98480.84
2023-01-11T22:29:32.440Z,98482.53
2023-01-11T22:31:35.464Z,98480.41
2023-01-11T22:33:39.166Z,98487.31
2023-01-11T22:35:42.221Z,98482.47
2023-01-11T22:37:45.251Z,98488.47
2023-01-11T22:39:48.287Z,98494.59
2023-01-11T22:41:51.410Z,98490.22
2023-01-11T22:43:55.064Z,98485.38
2023-01-11T22:46:00.891Z,98486.94
2023-01-11T22:48:04.065Z,98504.16
2023-01-11T22:50:07.765Z,98506.84
2023-01-11T22:52:10.784Z,98507.63
2023-01-11T22:54:14.250Z,98498.31
2023-01-11T22:56:19.254Z,98500.47
2023-01-11T22:58:22.255Z,98492.59
2023-01-11T23:00:25.430Z,98488.22
2023-01-11T23:02:30.249Z,98481.88
2023-01-11T23:04:33.993Z,98492.00
2023-01-11T23:06:39.026Z,98484.25
2023-01-11T23:08:43.197Z,98488.22
2023-01-11T23:10:46.174Z,98498.38
2023-01-11T23:13:07.005Z,98498.03
2023-01-11T23:15:11.109Z,98494.13
2023-01-11T23:17:14.059Z,98500.16
2023-01-11T23:19:20.366Z,98496.56
2023-01-11T23:21:23.583Z,98500.75
2023-01-11T23:23:28.097Z,98493.66
2023-01-11T23:25:31.200Z,98494.97
2023-01-11T23:27:34.288Z,98494.06
2023-01-11T23:29:37.324Z,98481.16
2023-01-11T23:31:40.512Z,98476.94
2023-01-11T23:33:43.613Z,98474.50
2023-01-11T23:35:56.267Z,98478.81
2023-01-11T23:37:59.235Z,98478.31
2023-01-11T23:40:02.268Z,98472.06
2023-01-11T23:42:23.183Z,98479.22
2023-01-11T23:44:26.268Z,98487.84
2023-01-11T23:46:47.147Z,98485.94
2023-01-11T23:48:50.160Z,98490.88
2023-01-11T23:50:54.506Z,98487.50
2023-01-11T23:52:57.516Z,98491.97
2023-01-11T23:55:00.870Z,98489.34
2023-01-11T23:57:05.111Z,98482.47
2023-01-11T23:59:09.163Z,98492.03
